Time;durP1;ratioP1;P1;durP2;ratioP2;P2;SDS_P1;SDS_P2;PMS_P1;PMS_P2;Temp;Humidity;BMP_temperature;BMP_pressure;BME280_temperature;BME280_humidity;BME280_pressure;Samples;Min_cycle;Max_cycle;Signal;HPM_P1;HPM_P2
2022/06/07 00:00:27;;;;;;;4.03;1.27;;;;;;;19.60;51.57;100544.38;4200010;28;20053;-65
2022/06/07 00:02:30;;;;;;;2.90;0.90;;;;;;;19.59;51.43;100542.63;4199089;28;20036;-66
2022/06/07 00:04:35;;;;;;;3.78;0.90;;;;;;;19.59;52.48;100543.47;4196126;28;20037;-65
2022/06/07 00:06:40;;;;;;;6.45;1.30;;;;;;;19.58;52.58;100535.59;4198193;28;20042;-65
2022/06/07 00:08:42;;;;;;;6.15;1.38;;;;;;;19.53;53.35;100539.19;4195452;28;20051;-65
2022/06/07 00:10:46;;;;;;;4.75;1.40;;;;;;;19.50;53.26;100543.69;4195371;28;20029;-65
2022/06/07 00:12:49;;;;;;;3.67;1.70;;;;;;;19.45;54.32;100543.78;4195040;28;20041;-65
2022/06/07 00:14:52;;;;;;;5.22;1.83;;;;;;;19.40;54.91;100542.16;4195217;28;20132;-65
2022/06/07 00:16:55;;;;;;;7.70;1.92;;;;;;;19.34;55.65;100544.00;4200812;28;20573;-65
2022/06/07 00:18:58;;;;;;;6.45;2.40;;;;;;;19.33;55.71;100542.28;4197815;28;20048;-65
2022/06/07 00:21:02;;;;;;;8.55;2.40;;;;;;;19.28;56.23;100544.13;4198637;28;20033;-65
2022/06/07 00:23:10;;;;;;;8.82;2.78;;;;;;;19.27;56.33;100539.75;4202473;28;20035;-65
2022/06/07 00:25:15;;;;;;;17.33;3.47;;;;;;;19.26;55.92;100550.31;4198681;28;20037;-65
2022/06/07 00:27:19;;;;;;;5.82;2.15;;;;;;;19.21;56.09;100541.66;4203841;28;20098;-65
2022/06/07 00:29:24;;;;;;;8.02;2.10;;;;;;;19.17;56.61;100552.25;4211712;28;20032;-65
2022/06/07 00:31:28;;;;;;;5.15;1.88;;;;;;;19.12;56.73;100551.47;4207399;28;20469;-65
2022/06/07 00:33:31;;;;;;;4.45;1.50;;;;;;;19.11;55.88;100540.97;4185806;28;20486;-65
2022/06/07 00:35:34;;;;;;;2.75;1.13;;;;;;;19.08;55.88;100539.25;4198555;28;20142;-65
2022/06/07 00:37:38;;;;;;;7.50;1.37;;;;;;;19.05;56.54;100533.19;4183830;28;20055;-65
2022/06/07 00:39:42;;;;;;;1.20;0.85;;;;;;;19.05;56.10;100534.03;4199919;28;20036;-65
2022/06/07 00:41:45;;;;;;;2.65;1.00;;;;;;;19.01;57.34;100535.88;4203486;28;20442;-65
2022/06/07 00:44:22;;;;;;;6.70;1.52;;;;;;;19.02;57.48;100534.97;4207384;28;20043;-65
2022/06/07 00:46:25;;;;;;;2.95;1.10;;;;;;;19.00;56.66;100538.56;4198730;28;20037;-64
2022/06/07 00:48:28;;;;;;;1.75;1.10;;;;;;;18.98;56.69;100537.69;4203054;28;20044;-65
2022/06/07 00:50:39;;;;;;;3.78;1.05;;;;;;;19.00;55.95;100535.91;4206154;28;20036;-65
2022/06/07 00:52:43;;;;;;;9.88;2.65;;;;;;;18.93;56.81;100539.56;4214273;28;20409;-65
2022/06/07 00:54:47;;;;;;;2.35;1.00;;;;;;;18.93;57.21;100531.66;4209141;28;20072;-65
2022/06/07 00:57:07;;;;;;;4.57;1.30;;;;;;;18.90;58.84;100534.34;4196732;28;20047;-65
2022/06/07 00:59:12;;;;;;;3.95;1.13;;;;;;;18.88;57.48;100531.75;4210694;28;20070;-65
2022/06/07 01:01:15;;;;;;;3.30;1.17;;;;;;;18.87;57.70;100532.66;4203449;28;20044;-65
2022/06/07 01:03:22;;;;;;;1.98;1.20;;;;;;;18.86;57.77;100535.28;4207589;28;20111;-65
2022/06/07 01:05:28;;;;;;;3.10;1.00;;;;;;;18.84;58.02;100530.03;4201249;28;20044;-65
2022/06/07 01:12:32;;;;;;;2.30;0.90;;;;;;;18.78;57.83;100517.84;4145196;28;20524;-65
2022/06/07 01:14:34;;;;;;;2.10;1.03;;;;;;;18.76;57.98;100527.56;4120489;28;20138;-65
2022/06/07 01:16:37;;;;;;;1.15;0.80;;;;;;;18.77;57.54;100531.91;4204361;28;20340;-65
2022/06/07 01:18:41;;;;;;;1.90;0.77;;;;;;;18.76;56.71;100524.94;4191907;28;20560;-65
2022/06/07 01:21:14;;;;;;;1.05;0.80;;;;;;;18.75;56.92;100527.56;4180640;28;20051;-64
2022/06/07 01:23:17;;;;;;;3.30;1.13;;;;;;;18.73;56.83;100530.22;4205477;28;20039;-65
2022/06/07 01:25:23;;;;;;;0.80;0.80;;;;;;;18.76;56.84;100521.41;4206666;28;20036;-65
2022/06/07 01:27:30;;;;;;;1.10;0.90;;;;;;;18.77;57.72;100524.00;4204155;28;20094;-65
2022/06/07 01:29:36;;;;;;;3.40;1.00;;;;;;;18.74;56.61;100521.44;4203914;28;20071;-65
2022/06/07 01:31:40;;;;;;;1.35;0.90;;;;;;;18.67;57.76;100522.44;4204814;28;20405;-65
2022/06/07 01:33:44;;;;;;;2.45;0.80;;;;;;;18.62;57.74;100516.41;4196757;28;20052;-65
2022/06/07 01:35:49;;;;;;;0.90;0.90;;;;;;;18.62;58.15;100517.25;4197830;28;20041;-65
2022/06/07 01:37:54;;;;;;;2.55;1.00;;;;;;;18.65;58.12;100516.34;4196857;28;20482;-65
2022/06/07 01:42:18;;;;;;;3.90;1.10;;;;;;;18.57;56.72;100523.50;4198901;28;20494;-65
2022/06/07 01:44:21;;;;;;;0.82;0.82;;;;;;;18.60;57.33;100515.53;4199200;28;20067;-65
2022/06/07 01:46:24;;;;;;;2.80;0.88;;;;;;;18.59;56.71;100521.72;4200494;28;20037;-65
2022/06/07 01:48:27;;;;;;;5.65;1.17;;;;;;;18.57;57.67;100511.19;4195338;28;20058;-65
2022/06/07 01:50:30;;;;;;;0.98;0.82;;;;;;;18.56;56.94;100513.84;4199584;28;20131;-65
2022/06/07 01:52:34;;;;;;;2.28;0.93;;;;;;;18.55;56.74;100506.88;4182628;28;20513;-65
2022/06/07 01:54:45;;;;;;;2.38;0.80;;;;;;;18.55;57.03;100509.50;4212451;28;20036;-66
2022/06/07 01:56:49;;;;;;;2.60;1.17;;;;;;;18.53;56.90;100508.66;4178736;28;20052;-66
2022/06/07 01:58:52;;;;;;;1.77;0.90;;;;;;;18.53;57.11;100509.53;4186924;28;20036;-65
2022/06/07 02:00:55;;;;;;;2.15;0.93;;;;;;;18.57;57.21;100510.34;4198344;28;20064;-65
2022/06/07 02:02:59;;;;;;;0.75;0.73;;;;;;;18.58;56.97;100510.31;4204097;28;20032;-65
2022/06/07 02:05:02;;;;;;;2.13;0.90;;;;;;;18.61;57.12;100512.88;4204929;28;20485;-65
2022/06/07 02:07:07;;;;;;;1.50;1.00;;;;;;;18.58;57.56;100510.31;4209474;28;20047;-65
2022/06/07 02:09:17;;;;;;;0.93;0.90;;;;;;;18.56;57.58;100520.00;4205846;28;20482;-65
2022/06/07 02:11:25;;;;;;;2.03;0.95;;;;;;;18.57;57.82;100519.09;4207524;28;20076;-66
2022/06/07 02:13:36;;;;;;;3.05;0.95;;;;;;;18.55;57.51;100513.00;4210577;28;20614;-65
2022/06/07 02:15:38;;;;;;;2.60;0.98;;;;;;;18.49;57.96;100505.22;4184728;28;20124;-65
2022/06/07 02:17:41;;;;;;;1.80;0.90;;;;;;;18.36;58.10;100509.81;4203556;28;20093;-65
2022/06/07 02:19:54;;;;;;;3.33;1.15;;;;;;;18.31;58.48;100501.13;4199239;28;20545;-65
2022/06/07 02:21:57;;;;;;;3.38;1.20;;;;;;;18.27;59.02;100496.84;4203538;28;20105;-65
2022/06/07 02:24:00;;;;;;;1.25;1.00;;;;;;;18.21;59.48;100499.53;4201439;28;20136;-65
2022/06/07 02:26:07;;;;;;;1.40;0.98;;;;;;;18.13;59.83;100497.03;4201102;28;20175;-65
2022/06/07 02:28:13;;;;;;;2.05;1.10;;;;;;;18.11;60.34;100494.44;4186568;28;20136;-65
2022/06/07 02:30:17;;;;;;;4.82;1.67;;;;;;;18.11;60.23;100488.31;4196758;28;20045;-65
2022/06/07 02:32:24;;;;;;;1.55;1.02;;;;;;;18.02;60.67;100483.19;4195519;28;20048;-65
2022/06/07 02:34:27;;;;;;;2.70;1.20;;;;;;;18.04;60.62;100484.91;4180545;28;20222;-65
2022/06/07 02:36:31;;;;;;;3.83;1.20;;;;;;;18.05;60.61;100480.53;4196442;28;20050;-65
2022/06/07 02:38:35;;;;;;;3.15;1.40;;;;;;;18.03;60.88;100485.78;4196775;28;20537;-64
2022/06/07 02:40:38;;;;;;;2.15;1.13;;;;;;;18.07;60.87;100484.84;4177802;28;20077;-64
2022/06/07 02:42:41;;;;;;;2.77;1.27;;;;;;;18.01;61.24;100489.38;4181526;28;20048;-65
2022/06/07 02:44:46;;;;;;;2.28;1.13;;;;;;;17.96;61.43;100484.19;4200225;28;20129;-65
2022/06/07 02:46:49;;;;;;;;;;;;;;;17.92;61.45;100477.22;4199747;28;20047;-65
2022/06/07 02:48:53;;;;;;;1.70;1.05;;;;;;;17.88;61.41;100481.63;4201724;28;20396;-65
2022/06/07 02:50:56;;;;;;;5.28;1.60;;;;;;;17.91;61.67;100481.59;4193208;28;20045;-65
2022/06/07 02:52:59;;;;;;;2.22;1.25;;;;;;;17.97;61.85;100478.00;4204243;28;20473;-65
2022/06/07 02:55:07;;;;;;;3.28;1.00;;;;;;;17.98;61.63;100471.88;4207126;28;20546;-65
2022/06/07 02:57:11;;;;;;;;;;;;;;;17.78;62.29;100474.78;4195749;28;20044;-66
2022/06/07 02:59:15;;;;;;;2.43;1.30;;;;;;;17.67;62.25;100477.56;4202113;28;19974;-65
2022/06/07 03:01:19;;;;;;;1.33;1.23;;;;;;;17.70;62.58;100479.28;4204264;28;20078;-65
2022/06/07 03:03:22;;;;;;;2.90;1.33;;;;;;;17.61;62.75;100486.41;4199756;28;20509;-66
2022/06/07 03:05:25;;;;;;;5.72;2.33;;;;;;;17.65;63.02;100487.22;4182787;28;20087;-65
2022/06/07 03:07:33;;;;;;;2.00;1.60;;;;;;;17.60;62.94;100482.03;4197865;28;20120;-65
2022/06/07 03:09:36;;;;;;;3.00;1.60;;;;;;;17.71;63.09;100484.53;4184540;28;20037;-65
2022/06/07 03:11:39;;;;;;;2.38;1.30;;;;;;;17.69;63.11;100477.56;4179739;28;20045;-65
2022/06/07 03:13:46;;;;;;;2.72;1.30;;;;;;;17.70;62.88;100472.25;4198545;28;20032;-65
2022/06/07 03:15:56;;;;;;;4.40;1.15;;;;;;;17.72;62.98;100480.13;4202967;28;20040;-65
2022/06/07 03:18:01;;;;;;;1.75;1.10;;;;;;;17.74;63.02;100479.22;4200087;28;20044;-65
2022/06/07 03:20:12;;;;;;;3.53;1.30;;;;;;;17.88;62.79;100470.25;4198487;28;20054;-65
2022/06/07 03:22:16;;;;;;;1.60;1.17;;;;;;;17.85;62.65;100480.81;4201675;28;20047;-65
2022/06/07 03:24:20;;;;;;;2.13;1.50;;;;;;;17.84;62.74;100474.66;4199541;28;20429;-65
2022/06/07 03:26:25;;;;;;;3.63;1.45;;;;;;;17.82;62.95;100472.97;4193755;28;20051;-65
2022/06/07 03:28:39;;;;;;;6.77;1.30;;;;;;;17.80;62.69;100475.63;4202465;28;20048;-65
2022/06/07 03:30:45;;;;;;;5.55;2.28;;;;;;;17.83;62.82;100479.94;4185059;28;20041;-65
2022/06/07 03:32:54;;;;;;;1.67;1.25;;;;;;;17.84;62.84;100492.22;4195537;28;20541;-65
2022/06/07 03:35:03;;;;;;;5.90;1.48;;;;;;;17.90;62.95;100486.88;4201210;28;20102;-65
2022/06/07 03:37:09;;;;;;;2.03;1.25;;;;;;;17.84;62.87;100485.19;4196011;28;20041;-65
2022/06/07 03:39:15;;;;;;;1.52;1.25;;;;;;;17.78;63.22;100495.81;4186121;28;20414;-65
2022/06/07 03:41:29;;;;;;;5.63;1.35;;;;;;;17.78;63.44;100488.81;4197601;28;20496;-65
2022/06/07 03:43:40;;;;;;;4.32;1.30;;;;;;;17.82;63.14;100492.25;4195234;28;20112;-65
2022/06/07 03:45:44;;;;;;;1.20;1.10;;;;;;;17.80;63.33;100494.03;4195727;28;20066;-65
2022/06/07 03:47:50;;;;;;;3.10;1.20;;;;;;;17.77;63.63;100502.84;4201191;28;20045;-65
2022/06/07 03:49:54;;;;;;;2.28;1.23;;;;;;;17.80;63.67;100499.31;4196297;28;20038;-65
2022/06/07 03:51:59;;;;;;;2.13;1.25;;;;;;;17.84;63.59;100495.72;4195576;28;20036;-65
2022/06/07 03:54:05;;;;;;;2.47;1.63;;;;;;;17.91;63.49;100499.16;4206069;28;20050;-65
2022/06/07 03:56:09;;;;;;;;;;;;;;;17.70;63.51;100493.31;4199628;28;20039;-65
2022/06/07 03:58:16;;;;;;;1.30;1.15;;;;;;;17.62;63.91;100496.06;4198439;28;19920;-65
2022/06/07 04:00:20;;;;;;;5.82;1.58;;;;;;;17.65;63.78;100492.47;4208676;28;20040;-65
2022/06/07 04:02:27;;;;;;;2.75;1.30;;;;;;;17.62;63.95;100500.41;4206922;28;20033;-65
2022/06/07 04:04:30;;;;;;;3.03;1.25;;;;;;;17.62;64.14;100500.41;4193145;28;20028;-65
2022/06/07 04:06:38;;;;;;;6.55;1.63;;;;;;;17.68;63.62;100492.44;4215509;28;20101;-64
2022/06/07 04:08:51;;;;;;;1.33;1.23;;;;;;;17.71;63.20;100499.41;4190343;28;20375;-65
2022/06/07 04:10:57;;;;;;;1.40;1.20;;;;;;;17.69;63.69;100491.56;4201724;28;20497;-65
2022/06/07 04:13:07;;;;;;;3.10;1.38;;;;;;;17.69;63.74;100491.56;4201621;28;20090;-65
2022/06/07 04:15:11;;;;;;;3.27;1.37;;;;;;;17.68;63.67;100489.81;4200252;28;20024;-65
2022/06/07 04:17:15;;;;;;;1.85;1.20;;;;;;;17.67;63.74;100490.72;4189512;28;20115;-65
2022/06/07 04:19:22;;;;;;;1.85;1.35;;;;;;;17.68;64.17;100496.84;4210910;28;20059;-65
2022/06/07 04:21:26;;;;;;;2.35;1.20;;;;;;;17.68;64.34;100495.06;4206848;28;20479;-65
2022/06/07 04:23:37;;;;;;;5.07;1.42;;;;;;;17.68;64.23;100495.06;4207135;28;20040;-65
2022/06/07 04:25:46;;;;;;;4.13;1.73;;;;;;;17.70;64.06;100509.06;4197632;28;20059;-65
2022/06/07 04:27:50;;;;;;;1.63;1.40;;;;;;;17.65;64.28;100505.63;4209791;28;20039;-65
2022/06/07 04:29:54;;;;;;;1.90;1.30;;;;;;;17.69;64.53;100511.72;4207960;28;20056;-65
2022/06/07 04:31:58;;;;;;;3.47;1.30;;;;;;;17.70;64.55;100505.59;4207787;28;20036;-65
2022/06/07 04:34:02;;;;;;;2.28;1.23;;;;;;;17.67;64.72;100503.88;4210841;28;20041;-65
2022/06/07 04:36:10;;;;;;;3.33;1.52;;;;;;;17.67;64.61;100522.28;4187207;28;20036;-65
2022/06/07 04:38:13;;;;;;;1.98;1.30;;;;;;;17.66;64.58;100522.28;4208419;28;20062;-65
2022/06/07 04:40:18;;;;;;;7.32;1.45;;;;;;;17.73;64.55;100514.28;4204636;28;20044;-65
2022/06/07 04:42:23;;;;;;;5.10;1.42;;;;;;;17.76;64.64;100516.88;4200230;28;20119;-65
2022/06/07 04:44:33;;;;;;;4.63;1.60;;;;;;;17.82;63.99;100515.91;4202551;28;20037;-65
2022/06/07 04:46:37;;;;;;;3.45;1.30;;;;;;;17.85;63.62;100517.63;4196243;28;20048;-65
2022/06/07 04:48:42;;;;;;;3.08;1.20;;;;;;;17.91;63.95;100518.44;4207055;28;20040;-65
2022/06/07 04:51:01;;;;;;;1.60;1.35;;;;;;;17.95;63.94;100519.25;4214472;28;20036;-65
2022/06/07 04:53:06;;;;;;;2.55;1.08;;;;;;;17.96;64.27;100510.50;4214609;28;20043;-65
2022/06/07 04:55:10;;;;;;;3.17;1.40;;;;;;;18.01;64.66;100515.69;4214496;28;20037;-65
2022/06/07 04:57:13;;;;;;;4.57;1.45;;;;;;;18.00;64.00;100525.31;4205553;28;20033;-65
2022/06/07 04:59:21;;;;;;;5.60;1.35;;;;;;;18.06;63.19;100519.97;4212815;28;20115;-65
2022/06/07 05:01:33;;;;;;;2.15;1.20;;;;;;;18.05;62.71;100530.53;4213721;28;20032;-65
2022/06/07 05:03:41;;;;;;;2.42;1.30;;;;;;;18.05;63.18;100531.38;4205425;28;20490;-65
2022/06/07 05:05:44;;;;;;;4.25;1.30;;;;;;;18.07;63.13;100524.31;4197499;28;20048;-65
2022/06/07 05:07:51;;;;;;;4.90;1.30;;;;;;;18.09;63.16;100527.81;4214210;28;20043;-65
2022/06/07 05:09:58;;;;;;;2.05;1.27;;;;;;;18.12;62.90;100527.75;4195523;28;20074;-65
2022/06/07 05:12:09;;;;;;;4.18;1.85;;;;;;;18.19;62.88;100525.03;4188386;28;20090;-65
2022/06/07 05:14:21;;;;;;;2.40;1.48;;;;;;;18.17;62.17;100525.06;4209042;28;20071;-65
2022/06/07 05:16:26;;;;;;;12.93;2.15;;;;;;;18.24;61.69;100531.09;4206353;28;20106;-65
2022/06/07 05:18:29;;;;;;;7.25;2.25;;;;;;;18.23;61.58;100530.22;4206510;28;20086;-65
2022/06/07 05:20:32;;;;;;;4.90;1.80;;;;;;;18.27;61.60;100536.31;4205992;28;20495;-65
2022/06/07 05:22:46;;;;;;;7.22;2.10;;;;;;;18.31;61.82;100540.59;4214321;28;20611;-65
2022/06/07 05:24:52;;;;;;;3.60;1.65;;;;;;;18.34;61.49;100540.59;4214123;28;20040;-65
2022/06/07 05:27:01;;;;;;;6.65;1.90;;;;;;;18.42;61.24;100536.03;4213904;28;20040;-65
2022/06/07 05:29:18;;;;;;;3.08;1.30;;;;;;;18.53;61.62;100538.50;4196319;28;20047;-65
2022/06/07 05:31:21;;;;;;;3.85;1.15;;;;;;;18.53;61.36;100540.25;4211808;28;20078;-65
2022/06/07 05:33:26;;;;;;;1.42;1.15;;;;;;;18.62;61.45;100542.75;4213808;28;20036;-65
2022/06/07 05:35:32;;;;;;;2.95;1.27;;;;;;;18.65;61.39;100543.53;4213808;28;20531;-65
2022/06/07 05:37:48;;;;;;;2.47;1.25;;;;;;;18.63;61.86;100549.72;4213727;28;20036;-65
2022/06/07 05:39:58;;;;;;;3.20;1.10;;;;;;;18.61;61.88;100544.47;4213922;28;20036;-65
2022/06/07 05:42:03;;;;;;;3.55;1.05;;;;;;;18.61;61.29;100557.66;4213821;28;20036;-65
2022/06/07 05:44:06;;;;;;;3.38;1.40;;;;;;;18.79;60.31;100552.94;4214339;28;20036;-65
2022/06/07 05:46:14;;;;;;;2.83;1.30;;;;;;;18.97;60.12;100560.56;4196918;28;20314;-65
2022/06/07 05:48:24;;;;;;;1.17;0.80;;;;;;;19.00;60.34;100565.75;4192335;28;20055;-65
2022/06/07 05:50:29;;;;;;;4.18;1.02;;;;;;;18.97;59.85;100560.56;4209011;28;20059;-65
2022/06/07 05:52:36;;;;;;;1.58;0.82;;;;;;;18.83;59.98;100563.38;4188917;28;20071;-65
2022/06/07 05:54:40;;;;;;;1.00;0.82;;;;;;;18.83;59.56;100560.75;4196811;28;20045;-65
2022/06/07 05:56:44;;;;;;;;;;;;;;;18.68;59.38;100568.97;4211148;28;20028;-66
2022/06/07 05:58:48;;;;;;;1.35;0.90;;;;;;;18.66;60.59;100562.81;4210476;28;19924;-66
2022/06/07 06:00:51;;;;;;;1.48;0.90;;;;;;;18.72;60.58;100568.00;4207934;28;20148;-67
2022/06/07 06:02:59;;;;;;;1.38;1.00;;;;;;;18.72;60.07;100557.47;4213550;28;20121;-66
2022/06/07 06:05:15;;;;;;;4.32;1.30;;;;;;;18.84;60.47;100559.88;4213434;28;20044;-66
2022/06/07 06:07:20;;;;;;;3.33;1.25;;;;;;;18.92;59.90;100557.13;4213125;28;20047;-66
2022/06/07 06:11:50;;;;;;;3.38;1.63;;;;;;;19.06;59.16;100559.50;4206381;28;20067;-66
2022/06/07 06:13:58;;;;;;;2.83;1.20;;;;;;;19.09;59.35;100559.44;4204879;28;20394;-66
2022/06/07 06:16:02;;;;;;;3.20;1.17;;;;;;;19.16;59.05;100563.69;4212056;28;20028;-65
2022/06/07 06:18:09;;;;;;;1.90;1.00;;;;;;;19.17;59.78;100559.28;4211175;28;20044;-65
2022/06/07 06:20:15;;;;;;;2.85;1.00;;;;;;;19.26;58.93;100559.13;4207030;28;20537;-65
2022/06/07 06:22:25;;;;;;;3.35;0.95;;;;;;;19.24;59.44;100558.25;4196492;28;20040;-65
2022/06/07 06:24:34;;;;;;;2.85;1.20;;;;;;;19.23;59.08;100563.56;4196429;28;20095;-65
2022/06/07 06:26:41;;;;;;;2.50;1.08;;;;;;;19.27;58.86;100557.34;4209081;28;20513;-65
2022/06/07 06:28:48;;;;;;;3.35;1.17;;;;;;;19.34;59.05;100562.44;4206946;28;20048;-65
2022/06/07 06:30:52;;;;;;;2.53;1.00;;;;;;;19.41;59.11;100551.81;4196513;28;20059;-65
2022/06/07 06:33:00;;;;;;;3.47;1.02;;;;;;;19.42;58.49;100551.78;4208924;28;20481;-65
2022/06/07 06:35:06;;;;;;;2.88;1.35;;;;;;;19.43;57.97;100548.22;4208389;28;20044;-65
2022/06/07 06:37:10;;;;;;;2.50;1.15;;;;;;;19.39;57.89;100543.94;4197016;28;20037;-66
2022/06/07 06:39:17;;;;;;;1.33;1.00;;;;;;;19.32;58.83;100545.81;4196199;28;20044;-65
2022/06/07 06:41:26;;;;;;;1.60;1.05;;;;;;;19.39;58.90;100550.94;4204531;28;20036;-65
2022/06/07 06:43:29;;;;;;;3.05;1.00;;;;;;;19.35;58.90;100542.25;4213935;28;20401;-65
2022/06/07 06:45:44;;;;;;;3.65;1.13;;;;;;;19.39;58.91;100546.56;4210959;28;20036;-65
2022/06/07 06:47:51;;;;;;;2.20;1.35;;;;;;;19.35;58.71;100547.53;4205503;28;20044;-65
2022/06/07 06:49:54;;;;;;;3.80;1.50;;;;;;;19.57;57.78;100544.44;4204246;28;20037;-65
2022/06/07 06:51:59;;;;;;;3.25;1.08;;;;;;;19.58;58.58;100546.16;4206608;28;20127;-65
2022/06/07 06:54:06;;;;;;;2.38;1.20;;;;;;;19.60;58.46;100549.63;4205435;28;20440;-65
2022/06/07 06:56:21;;;;;;;3.22;1.10;;;;;;;19.70;58.00;100546.75;4203926;28;20036;-65
2022/06/07 06:58:25;;;;;;;4.07;1.20;;;;;;;19.71;57.30;100551.13;4212839;28;20123;-65
2022/06/07 07:00:28;;;;;;;;;;;;;;;19.64;57.72;100548.66;4213199;28;20074;-65
2022/06/07 07:02:31;;;;;;;4.68;1.10;;;;;;;19.67;57.42;100554.72;4213984;28;19951;-65
2022/06/07 07:04:42;;;;;;;4.25;1.20;;;;;;;19.70;57.34;100553.81;4211621;28;20456;-65
2022/06/07 07:06:46;;;;;;;2.42;1.00;;;;;;;19.79;56.09;100558.91;4204106;28;20028;-65
2022/06/07 07:08:50;;;;;;;3.17;1.50;;;;;;;19.85;56.85;100555.25;4204134;28;20040;-65
2022/06/07 07:11:04;;;;;;;4.05;1.27;;;;;;;19.83;56.06;100552.66;4189249;28;20045;-65
2022/06/07 07:13:09;;;;;;;1.63;1.00;;;;;;;19.76;56.53;100556.31;4192824;28;20139;-65
2022/06/07 07:15:14;;;;;;;2.35;0.93;;;;;;;19.74;56.38;100552.81;4212629;28;20044;-65
2022/06/07 07:17:23;;;;;;;3.00;1.25;;;;;;;19.73;56.17;100553.72;4205093;28;20473;-65
2022/06/07 07:19:28;;;;;;;3.65;1.20;;;;;;;19.69;56.02;100549.44;4204121;28;20040;-65
2022/06/07 07:21:34;;;;;;;7.97;1.33;;;;;;;19.81;56.62;100554.44;4197830;28;20153;-65
2022/06/07 07:23:41;;;;;;;3.63;1.00;;;;;;;19.85;55.74;100556.13;4204810;28;20043;-65
2022/06/07 07:25:45;;;;;;;5.22;1.75;;;;;;;19.80;54.59;100552.72;4205316;28;20141;-65
2022/06/07 07:27:56;;;;;;;2.97;1.27;;;;;;;19.83;55.15;100551.78;4222571;28;20068;-65
2022/06/07 07:30:05;;;;;;;1.98;1.20;;;;;;;19.81;55.44;100551.81;4221777;28;20036;-65
2022/06/07 07:32:12;;;;;;;4.80;1.00;;;;;;;19.84;54.73;100554.41;4210647;28;20098;-65
2022/06/07 07:34:28;;;;;;;4.78;1.30;;;;;;;19.87;53.79;100534.97;4209541;28;20064;-65
2022/06/07 07:36:32;;;;;;;3.60;0.95;;;;;;;19.99;53.21;100547.00;4211453;28;20048;-65
2022/06/07 07:38:35;;;;;;;2.08;1.02;;;;;;;20.04;54.03;100547.78;4214441;28;20047;-65
2022/06/07 07:40:41;;;;;;;3.00;0.90;;;;;;;20.02;54.10;100542.53;4188906;28;20059;-65
2022/06/07 07:42:47;;;;;;;2.47;0.93;;;;;;;20.02;53.28;100546.97;4213445;28;20180;-65
2022/06/07 07:45:02;;;;;;;5.25;1.15;;;;;;;19.93;52.02;100553.31;4198949;28;20409;-65
2022/06/07 07:47:06;;;;;;;1.17;0.80;;;;;;;19.79;51.97;100553.63;4198707;28;20486;-65
2022/06/07 07:49:17;;;;;;;1.42;0.70;;;;;;;19.78;52.75;100545.72;4199081;28;20044;-65
2022/06/07 07:51:23;;;;;;;3.10;1.10;;;;;;;19.87;52.76;100550.81;4198890;28;20719;-65
2022/06/07 07:53:27;;;;;;;3.72;1.45;;;;;;;19.96;53.30;100547.09;4206130;28;20060;-65
2022/06/07 07:55:30;;;;;;;5.10;1.15;;;;;;;20.01;53.33;100550.50;4199291;28;20128;-65
2022/06/07 07:57:34;;;;;;;2.08;0.90;;;;;;;20.16;53.47;100542.19;4207047;28;20060;-65
2022/06/07 07:59:37;;;;;;;3.35;0.90;;;;;;;20.27;53.47;100544.59;4215361;28;20044;-65
2022/06/07 08:01:43;;;;;;;1.52;0.80;;;;;;;20.44;53.54;100543.28;4215595;28;20090;-65
2022/06/07 08:03:48;;;;;;;4.22;1.13;;;;;;;20.50;53.22;100544.03;4215893;28;20555;-65
2022/06/07 08:05:56;;;;;;;3.70;0.93;;;;;;;20.58;53.98;100534.09;4215217;28;20040;-65
2022/06/07 08:07:59;;;;;;;3.70;1.05;;;;;;;20.72;52.93;100530.25;4216487;28;20131;-65
2022/06/07 08:10:05;;;;;;;1.27;0.75;;;;;;;20.77;51.50;100532.81;4209766;28;20036;-65
2022/06/07 08:12:08;;;;;;;2.03;0.90;;;;;;;20.83;50.23;100532.63;4208005;28;20036;-65
2022/06/07 08:14:15;;;;;;;1.95;0.80;;;;;;;20.88;50.24;100533.34;4216367;28;20040;-65
2022/06/07 08:16:19;;;;;;;1.10;0.82;;;;;;;20.92;50.16;100522.69;4216074;28;20044;-65
2022/06/07 08:18:23;;;;;;;;;;;;;;;20.87;49.97;100524.56;4208114;28;20070;-65
2022/06/07 08:20:28;;;;;;;3.90;1.10;;;;;;;20.80;49.67;100527.44;4211543;28;19926;-65
2022/06/07 08:22:31;;;;;;;2.15;1.00;;;;;;;20.85;50.13;100520.22;4206477;28;20123;-65
2022/06/07 08:24:34;;;;;;;2.92;0.93;;;;;;;20.98;49.61;100518.97;4209598;28;20544;-65
2022/06/07 08:26:37;;;;;;;2.45;1.10;;;;;;;21.04;49.83;100512.66;4207213;28;20067;-65
2022/06/07 08:28:40;;;;;;;2.92;0.95;;;;;;;21.16;50.17;100517.59;4207828;28;20091;-65
2022/06/07 08:30:45;;;;;;;2.92;0.80;;;;;;;21.24;49.43;100509.44;4216211;28;20221;-65
2022/06/07 08:32:47;;;;;;;5.85;0.77;;;;;;;21.30;47.61;100511.03;4215061;28;20036;-66
2022/06/07 08:39:33;;;;;;;4.68;1.10;;;;;;;21.48;46.54;100514.91;4210763;28;20040;-66
2022/06/07 08:41:41;;;;;;;2.15;0.70;;;;;;;21.47;45.30;100508.75;4207117;28;20131;-65
2022/06/07 08:43:45;;;;;;;2.53;0.82;;;;;;;21.58;45.00;100503.16;4208078;28;20067;-66
2022/06/07 08:45:49;;;;;;;1.45;0.73;;;;;;;21.58;45.77;100501.41;4215997;28;20182;-65
2022/06/07 08:47:54;;;;;;;2.05;0.60;;;;;;;21.41;46.63;100508.94;4205624;28;20040;-65
2022/06/07 08:50:00;;;;;;;3.47;0.90;;;;;;;21.30;46.44;100500.47;4214545;28;20058;-65
2022/06/07 08:52:12;;;;;;;1.52;0.80;;;;;;;21.37;47.00;100504.66;4207036;28;20082;-65
2022/06/07 08:54:20;;;;;;;1.48;0.73;;;;;;;21.48;46.65;100509.63;4206935;28;20131;-66
2022/06/07 08:56:26;;;;;;;2.42;0.80;;;;;;;21.49;45.70;100506.94;4206094;28;20044;-66
2022/06/07 08:58:34;;;;;;;1.92;0.73;;;;;;;21.59;46.25;100505.75;4205951;28;20040;-65
2022/06/07 09:00:42;;;;;;;1.67;0.80;;;;;;;21.52;45.95;100503.34;4215723;28;20159;-65
2022/06/07 09:03:15;;;;;;;1.85;0.85;;;;;;;21.66;45.82;100506.44;4215737;28;20552;-65
2022/06/07 09:05:19;;;;;;;2.30;1.00;;;;;;;21.73;46.28;100492.13;4213172;28;20477;-65
2022/06/07 09:07:22;;;;;;;1.58;0.70;;;;;;;21.92;46.97;100489.75;4206738;28;20032;-65
2022/06/07 09:14:11;;;;;;;4.30;1.00;;;;;;;21.76;46.64;100486.72;4215333;28;20062;-65
2022/06/07 09:16:14;;;;;;;6.22;0.88;;;;;;;21.61;46.12;100481.91;4213937;28;20143;-65
2022/06/07 09:18:20;;;;;;;9.02;0.90;;;;;;;21.64;46.76;100480.94;4215323;28;20047;-65
2022/06/07 09:20:27;;;;;;;3.60;1.20;;;;;;;21.74;46.79;100485.03;4211696;28;20040;-65
2022/06/07 09:22:40;;;;;;;1.80;0.80;;;;;;;21.78;47.02;100487.53;4200071;28;20050;-65
2022/06/07 09:24:54;;;;;;;3.38;0.85;;;;;;;21.66;46.27;100479.13;4206397;28;20449;-65
2022/06/07 09:27:07;;;;;;;2.95;1.30;;;;;;;21.52;46.36;100483.06;4202540;28;20432;-65
2022/06/07 09:29:16;;;;;;;2.40;0.93;;;;;;;21.52;47.29;100483.06;4210069;28;20563;-65
2022/06/07 09:31:22;;;;;;;2.50;1.00;;;;;;;21.61;47.58;100466.91;4207195;28;20447;-66
2022/06/07 09:33:27;;;;;;;2.63;1.23;;;;;;;21.66;47.65;100469.41;4198611;28;20040;-66
2022/06/07 09:35:36;;;;;;;2.88;0.70;;;;;;;21.86;47.50;100471.44;4199140;28;20143;-66
2022/06/07 09:37:47;;;;;;;1.27;0.75;;;;;;;21.84;48.20;100465.28;4206255;28;20036;-66
2022/06/07 09:39:56;;;;;;;3.05;0.88;;;;;;;21.89;47.93;100463.38;4197136;28;20048;-66
2022/06/07 09:42:13;;;;;;;2.50;0.90;;;;;;;21.73;47.64;100463.00;4200576;28;20051;-66
2022/06/07 09:44:22;;;;;;;1.20;0.75;;;;;;;21.87;47.68;100451.09;4206498;28;20040;-65
2022/06/07 09:46:26;;;;;;;4.43;0.90;;;;;;;21.89;47.65;100460.72;4213263;28;20054;-65
2022/06/07 09:48:33;;;;;;;3.33;0.85;;;;;;;21.92;47.33;100455.34;4213596;28;20044;-65
2022/06/07 09:50:37;;;;;;;2.65;0.70;;;;;;;21.77;47.09;100455.81;4213681;28;20051;-66
2022/06/07 09:52:46;;;;;;;4.15;0.90;;;;;;;21.81;48.04;100459.25;4214757;28;20127;-65
2022/06/07 09:54:54;;;;;;;1.83;0.98;;;;;;;21.82;48.13;100453.06;4214878;28;20082;-65
2022/06/07 09:57:11;;;;;;;1.77;1.13;;;;;;;22.08;47.16;100449.53;4193627;28;20043;-65
2022/06/07 09:59:43;;;;;;;1.60;0.80;;;;;;;22.16;47.13;100452.78;4208735;28;20404;-66
2022/06/07 10:01:55;;;;;;;2.60;1.00;;;;;;;22.12;45.03;100453.78;4208539;28;20470;-66
2022/06/07 10:04:06;;;;;;;0.80;0.68;;;;;;;22.15;44.76;100443.09;4202510;28;20036;-66
2022/06/07 10:06:17;;;;;;;3.50;0.95;;;;;;;22.41;45.11;100441.38;4196360;28;20079;-66
2022/06/07 10:08:36;;;;;;;5.35;1.00;;;;;;;22.40;45.37;100440.50;4205684;28;20047;-65